createdAt,value
2018-06-08T00:00:56.813Z,97.32
2018-06-08T00:03:56.598Z,98.73
2018-06-08T00:06:32.303Z,92.25
2018-06-08T00:09:41.008Z,89.59
2018-06-08T00:12:20.159Z,86.14
2018-06-08T00:14:53.624Z,86.01
2018-06-08T00:17:24.922Z,86.89
2018-06-08T00:19:57.893Z,86.60
2018-06-08T00:22:54.927Z,86.65
2018-06-08T00:25:39.755Z,85.89
2018-06-08T00:28:13.469Z,88.04
2018-06-08T00:30:44.785Z,87.52
2018-06-08T00:33:15.975Z,89.37
2018-06-08T00:35:47.152Z,90.89
2018-06-08T00:38:39.810Z,94.32
2018-06-08T00:41:17.139Z,97.05
2018-06-08T00:43:48.295Z,98.05
2018-06-08T00:46:20.124Z,99.04
2018-06-08T00:48:51.662Z,99.38
2018-06-08T00:51:23.307Z,99.96
2018-06-08T00:53:54.552Z,99.87
2018-06-08T00:56:36.330Z,100.00
2018-06-08T00:59:07.612Z,100.00
2018-06-08T01:01:39.624Z,100.00
2018-06-08T01:04:10.769Z,100.00
2018-06-08T01:06:42.296Z,100.00
2018-06-08T01:09:13.376Z,100.00
2018-06-08T01:11:44.809Z,100.00
2018-06-08T01:14:15.895Z,100.00
2018-06-08T01:16:47.148Z,100.00
2018-06-08T01:19:18.263Z,100.00
2018-06-08T01:21:49.414Z,100.00
2018-06-08T01:24:20.508Z,100.00
2018-06-08T01:26:51.663Z,100.00
2018-06-08T01:29:22.931Z,100.00
2018-06-08T01:31:54.160Z,100.00
2018-06-08T01:34:25.321Z,100.00
2018-06-08T01:36:56.523Z,100.00
2018-06-08T01:39:27.916Z,100.00
2018-06-08T01:41:59.318Z,100.00
2018-06-08T01:45:04.326Z,100.00
2018-06-08T01:47:38.559Z,100.00
2018-06-08T01:50:19.944Z,100.00
2018-06-08T01:52:53.546Z,100.00
2018-06-08T01:55:24.875Z,100.00
2018-06-08T01:57:56.163Z,100.00
2018-06-08T02:00:28.058Z,100.00
2018-06-08T02:02:59.256Z,100.00
2018-06-08T02:05:30.972Z,100.00
2018-06-08T02:08:15.876Z,100.00
2018-06-08T02:10:47.924Z,100.00
2018-06-08T02:13:19.129Z,100.00
2018-06-08T02:15:50.306Z,100.00
2018-06-08T02:18:21.807Z,100.00
2018-06-08T02:20:52.980Z,99.13
2018-06-08T02:23:24.283Z,99.32
2018-06-08T02:25:55.312Z,100.00
2018-06-08T02:28:26.404Z,100.00
2018-06-08T02:30:57.859Z,100.00
2018-06-08T02:33:29.478Z,100.00
2018-06-08T02:36:00.687Z,100.00
2018-06-08T02:38:32.084Z,100.00
2018-06-08T02:41:03.497Z,100.00
2018-06-08T02:43:34.867Z,99.61
2018-06-08T02:46:06.013Z,100.00
2018-06-08T02:48:37.574Z,98.95
2018-06-08T02:51:08.787Z,99.54
2018-06-08T02:53:40.167Z,95.57
2018-06-08T02:56:11.308Z,96.80
2018-06-08T02:58:42.600Z,96.11
2018-06-08T03:01:13.885Z,97.10
2018-06-08T03:03:45.058Z,95.93
2018-06-08T03:06:16.101Z,96.52
2018-06-08T03:08:47.447Z,96.85
2018-06-08T03:11:18.478Z,97.61
2018-06-08T03:13:49.728Z,97.89
2018-06-08T03:16:21.015Z,96.07
2018-06-08T03:18:52.035Z,93.98
2018-06-08T03:21:22.999Z,94.64
2018-06-08T03:23:54.059Z,93.92
2018-06-08T03:26:25.263Z,93.97
2018-06-08T03:28:56.342Z,96.45
2018-06-08T03:31:27.909Z,96.17
2018-06-08T03:33:59.316Z,96.11
2018-06-08T03:36:30.967Z,97.91
2018-06-08T03:39:02.190Z,95.38
2018-06-08T03:41:33.615Z,95.34
2018-06-08T03:44:04.950Z,95.21
2018-06-08T03:46:36.208Z,95.39
2018-06-08T03:49:07.485Z,95.54
2018-06-08T03:51:38.750Z,96.96
2018-06-08T03:54:10.001Z,97.62
2018-06-08T03:56:41.260Z,98.86
2018-06-08T03:59:12.464Z,98.34
2018-06-08T04:01:43.748Z,99.45
2018-06-08T04:04:14.995Z,99.56
2018-06-08T04:06:46.305Z,100.00
2018-06-08T04:09:17.879Z,100.00
2018-06-08T04:11:49.167Z,100.00
2018-06-08T04:14:20.390Z,100.00
2018-06-08T04:16:51.567Z,100.00
2018-06-08T04:19:22.864Z,100.00
2018-06-08T04:21:54.217Z,100.00
2018-06-08T04:24:29.091Z,100.00
2018-06-08T04:27:01.557Z,100.00
2018-06-08T04:29:33.016Z,100.00
2018-06-08T04:32:05.522Z,100.00
2018-06-08T04:34:37.117Z,100.00
2018-06-08T04:37:08.472Z,100.00
2018-06-08T04:39:40.884Z,100.00
2018-06-08T04:42:12.274Z,100.00
2018-06-08T04:44:43.568Z,100.00
2018-06-08T04:47:17.277Z,100.00
2018-06-08T04:49:49.326Z,100.00
2018-06-08T04:52:20.611Z,100.00
2018-06-08T04:54:52.164Z,100.00
2018-06-08T04:57:27.892Z,100.00
2018-06-08T04:59:59.698Z,100.00
2018-06-08T05:02:31.122Z,100.00
2018-06-08T05:05:10.552Z,100.00
2018-06-08T05:07:42.930Z,100.00
2018-06-08T05:10:19.000Z,100.00
2018-06-08T05:12:50.075Z,100.00
2018-06-08T05:15:21.438Z,100.00
2018-06-08T05:17:53.392Z,100.00
2018-06-08T05:20:25.975Z,100.00
2018-06-08T05:22:57.598Z,100.00
2018-06-08T05:25:28.808Z,100.00
2018-06-08T05:28:00.014Z,100.00
2018-06-08T05:30:31.505Z,100.00
2018-06-08T05:33:02.691Z,100.00
2018-06-08T05:35:33.882Z,100.00
2018-06-08T05:38:05.205Z,100.00
2018-06-08T05:40:36.502Z,100.00
2018-06-08T05:43:07.829Z,98.97
2018-06-08T05:45:39.061Z,97.04
2018-06-08T05:48:10.301Z,97.21
2018-06-08T05:50:41.591Z,97.18
2018-06-08T05:53:12.975Z,97.49
2018-06-08T05:55:44.122Z,96.45
2018-06-08T05:58:15.389Z,96.75
2018-06-08T06:00:46.652Z,96.20
2018-06-08T06:03:17.774Z,95.57
2018-06-08T06:05:48.935Z,95.12
2018-06-08T06:08:19.875Z,95.97
2018-06-08T06:10:52.700Z,96.41
2018-06-08T06:13:24.395Z,94.03
2018-06-08T06:15:55.665Z,94.83
2018-06-08T06:18:27.342Z,95.52
2018-06-08T06:21:33.338Z,94.22
2018-06-08T06:24:27.470Z,93.86
2018-06-08T06:27:06.304Z,95.32
2018-06-08T06:29:37.593Z,94.66
2018-06-08T06:32:08.873Z,94.91
2018-06-08T06:34:40.034Z,96.05
2018-06-08T06:37:11.171Z,97.51
2018-06-08T06:39:42.461Z,97.53
2018-06-08T06:42:13.624Z,96.43
2018-06-08T06:44:45.078Z,97.29
2018-06-08T06:47:17.528Z,96.37
2018-06-08T06:49:49.679Z,93.61
2018-06-08T06:52:21.052Z,93.57
2018-06-08T06:54:52.258Z,94.38
2018-06-08T06:57:23.514Z,92.77
2018-06-08T06:59:54.793Z,94.03
2018-06-08T07:02:26.280Z,93.98
2018-06-08T07:04:57.710Z,92.20
2018-06-08T07:07:29.381Z,91.02
2018-06-08T07:10:00.694Z,90.14
2018-06-08T07:12:32.951Z,89.20
2018-06-08T07:15:04.185Z,88.87
2018-06-08T07:17:36.731Z,88.07
2018-06-08T07:20:07.984Z,91.02
2018-06-08T07:22:39.492Z,88.94
2018-06-08T07:25:10.694Z,88.92
2018-06-08T07:27:44.442Z,88.74
2018-06-08T07:30:18.219Z,89.20
2018-06-08T07:32:49.736Z,87.84
2018-06-08T07:35:21.136Z,87.98
2018-06-08T07:37:52.815Z,88.29
2018-06-08T07:40:24.448Z,86.61
2018-06-08T07:42:55.901Z,84.78
2018-06-08T07:45:27.832Z,82.32
2018-06-08T07:47:59.126Z,80.95
2018-06-08T07:50:41.157Z,81.47
2018-06-08T07:53:16.472Z,78.48
2018-06-08T07:58:49.959Z,72.32
2018-06-08T08:01:21.083Z,72.78
2018-06-08T08:03:52.195Z,68.69
2018-06-08T08:06:23.306Z,68.12
2018-06-08T08:08:54.741Z,68.81
2018-06-08T08:11:25.918Z,69.08
2018-06-08T08:13:57.101Z,66.53
2018-06-08T08:16:28.406Z,67.85
2018-06-08T08:18:59.515Z,67.75
2018-06-08T08:21:31.058Z,64.85
2018-06-08T08:24:02.336Z,67.41
2018-06-08T08:26:33.460Z,64.80
2018-06-08T08:29:04.914Z,63.85
2018-06-08T08:31:36.092Z,62.15
2018-06-08T08:34:07.395Z,63.90
2018-06-08T08:36:38.426Z,65.38
2018-06-08T08:39:10.402Z,61.58
2018-06-08T08:41:41.527Z,60.86
2018-06-08T08:44:12.827Z,59.15
2018-06-08T08:46:44.054Z,62.09
2018-06-08T08:49:15.179Z,61.37
2018-06-08T08:51:46.733Z,59.84
2018-06-08T08:54:18.105Z,59.04
2018-06-08T08:56:49.137Z,57.78
2018-06-08T08:59:20.661Z,59.79
2018-06-08T09:01:52.337Z,57.53
2018-06-08T09:04:23.840Z,56.37
2018-06-08T09:06:55.092Z,58.50
2018-06-08T09:09:26.292Z,58.82
2018-06-08T09:11:57.627Z,60.93
2018-06-08T09:14:29.155Z,60.68
2018-06-08T09:17:00.266Z,59.36
2018-06-08T09:19:31.927Z,57.08
2018-06-08T09:22:03.044Z,58.35
2018-06-08T09:24:34.362Z,54.99
2018-06-08T09:27:05.825Z,52.09
2018-06-08T09:29:36.914Z,53.02
2018-06-08T09:32:09.108Z,53.45
2018-06-08T09:34:40.215Z,52.87
2018-06-08T09:37:11.313Z,50.83
2018-06-08T09:39:42.516Z,54.10
2018-06-08T09:42:13.484Z,55.57
2018-06-08T09:44:45.191Z,52.36
2018-06-08T09:47:16.616Z,54.31
2018-06-08T09:49:47.751Z,53.39
2018-06-08T09:52:19.212Z,50.83
2018-06-08T09:54:50.527Z,54.82
2018-06-08T09:57:21.595Z,52.84
2018-06-08T09:59:52.729Z,52.34
2018-06-08T10:02:23.779Z,52.01
2018-06-08T10:04:55.299Z,49.98
2018-06-08T10:07:26.244Z,50.37
2018-06-08T10:09:57.407Z,49.56
2018-06-08T10:12:28.913Z,46.67
2018-06-08T10:14:59.940Z,48.72
2018-06-08T10:17:31.979Z,51.20
2018-06-08T10:20:03.399Z,53.62
2018-06-08T10:22:35.912Z,52.36
2018-06-08T10:25:06.965Z,53.82
2018-06-08T10:27:37.925Z,55.60
2018-06-08T10:30:09.033Z,54.78
2018-06-08T10:32:40.023Z,53.69
2018-06-08T10:35:12.001Z,56.46
2018-06-08T10:37:46.178Z,57.83
2018-06-08T10:40:28.291Z,52.90
2018-06-08T10:42:59.544Z,50.81
2018-06-08T10:45:31.279Z,48.55
2018-06-08T10:48:02.412Z,49.24
2018-06-08T10:50:33.481Z,47.23
2018-06-08T10:53:04.640Z,47.44
2018-06-08T10:55:35.704Z,41.73
2018-06-08T10:58:06.874Z,44.36
2018-06-08T11:00:39.367Z,47.25
2018-06-08T11:03:10.409Z,47.90
2018-06-08T11:05:41.620Z,44.44
2018-06-08T11:08:12.581Z,44.56
2018-06-08T11:10:43.605Z,44.56
2018-06-08T11:13:14.657Z,46.66
2018-06-08T11:15:45.750Z,44.40
2018-06-08T11:18:16.731Z,45.28
2018-06-08T11:20:48.185Z,46.88
2018-06-08T11:23:19.453Z,51.67
2018-06-08T11:25:50.622Z,50.58
2018-06-08T11:28:21.949Z,49.29
2018-06-08T11:30:53.180Z,47.51
2018-06-08T11:33:24.215Z,44.64
2018-06-08T11:35:55.536Z,46.30
2018-06-08T11:38:26.571Z,47.93
2018-06-08T11:40:57.646Z,48.87
2018-06-08T11:43:29.300Z,48.36
2018-06-08T11:46:00.504Z,51.21
2018-06-08T11:48:32.003Z,47.74
2018-06-08T11:51:03.044Z,49.53
2018-06-08T11:53:34.187Z,51.89
2018-06-08T11:56:05.359Z,49.54
2018-06-08T11:58:36.353Z,53.80
2018-06-08T12:01:07.312Z,52.67
2018-06-08T12:03:38.460Z,53.22
2018-06-08T12:06:09.606Z,51.58
2018-06-08T12:08:40.777Z,50.92
2018-06-08T12:11:11.928Z,51.11
2018-06-08T12:13:43.488Z,52.67
2018-06-08T12:16:14.541Z,56.43
2018-06-08T12:18:45.967Z,56.57
2018-06-08T12:21:17.510Z,58.39
2018-06-08T12:23:48.729Z,59.68
2018-06-08T12:26:22.731Z,62.64
2018-06-08T12:28:58.228Z,64.60
2018-06-08T12:31:30.416Z,65.89
2018-06-08T12:34:01.822Z,65.53
2018-06-08T12:36:33.075Z,65.49
2018-06-08T12:39:04.850Z,65.75
2018-06-08T12:41:36.637Z,65.35
2018-06-08T12:44:09.966Z,63.31
2018-06-08T12:46:41.279Z,62.53
2018-06-08T12:49:12.459Z,62.68
2018-06-08T12:51:43.436Z,64.12
2018-06-08T12:54:14.513Z,62.60
2018-06-08T12:56:45.757Z,60.78
2018-06-08T12:59:16.898Z,62.49
2018-06-08T13:01:48.025Z,61.55
2018-06-08T13:04:19.054Z,60.53
2018-06-08T13:06:50.230Z,60.36
2018-06-08T13:09:21.439Z,60.53
2018-06-08T13:11:52.612Z,62.91
2018-06-08T13:14:24.713Z,67.36
2018-06-08T13:16:55.728Z,68.46
2018-06-08T13:19:26.861Z,69.76
2018-06-08T13:21:58.097Z,72.18
2018-06-08T13:24:29.576Z,71.17
2018-06-08T13:27:01.469Z,72.84
2018-06-08T13:29:36.405Z,75.27
2018-06-08T13:32:07.805Z,75.33
2018-06-08T14:08:40.799Z,89.39
2018-06-08T14:11:14.033Z,92.48
2018-06-08T14:56:07.205Z,88.07
2018-06-08T15:01:48.260Z,82.67
2018-06-08T15:04:19.464Z,82.83
2018-06-08T15:06:50.814Z,78.04
2018-06-08T15:09:22.821Z,80.58
2018-06-08T15:11:55.039Z,83.41
2018-06-08T15:14:26.705Z,82.72
2018-06-08T15:16:58.361Z,82.16
2018-06-08T15:19:30.412Z,85.02
2018-06-08T15:22:01.694Z,87.47
2018-06-08T15:24:32.870Z,89.63
2018-06-08T15:27:04.330Z,88.48
2018-06-08T15:29:36.070Z,86.27
2018-06-08T15:32:07.718Z,86.83
2018-06-08T15:34:39.100Z,87.84
2018-06-08T15:37:10.709Z,86.68
2018-06-08T15:39:42.072Z,85.08
2018-06-08T15:42:13.484Z,83.48
2018-06-08T15:44:44.837Z,83.23
2018-06-08T15:47:16.034Z,85.87
2018-06-08T15:49:47.539Z,83.21
2018-06-08T15:52:18.900Z,85.62
2018-06-08T15:54:50.088Z,83.53
2018-06-08T15:57:21.503Z,82.40
2018-06-08T15:59:54.053Z,80.68
2018-06-08T16:02:25.816Z,78.72
2018-06-08T16:04:57.695Z,82.01
2018-06-08T16:07:28.951Z,83.81
2018-06-08T16:10:00.200Z,80.83
2018-06-08T16:12:31.541Z,81.40
2018-06-08T16:15:02.698Z,81.42
2018-06-08T16:17:33.968Z,80.52
2018-06-08T16:20:05.162Z,80.42
2018-06-08T16:22:37.352Z,80.87
2018-06-08T16:25:08.784Z,80.71
2018-06-08T16:27:39.960Z,80.72
2018-06-08T16:30:11.122Z,81.79
2018-06-08T16:32:42.287Z,80.60
2018-06-08T16:35:15.829Z,82.12
2018-06-08T16:37:47.071Z,81.55
2018-06-08T16:40:19.373Z,80.72
2018-06-08T16:42:51.691Z,81.26
2018-06-08T16:45:22.892Z,81.35
2018-06-08T16:47:54.051Z,81.49
2018-06-08T16:50:26.647Z,81.27
2018-06-08T16:52:58.282Z,81.42
2018-06-08T16:55:30.587Z,81.77
2018-06-08T16:58:01.982Z,79.68
2018-06-08T17:00:33.426Z,78.80
2018-06-08T17:03:04.688Z,80.54
2018-06-08T17:05:36.060Z,80.44
2018-06-08T17:08:07.189Z,80.84
2018-06-08T17:10:38.355Z,82.18
2018-06-08T17:13:09.631Z,83.06
2018-06-08T17:15:40.690Z,83.09
2018-06-08T17:18:12.220Z,83.87
2018-06-08T17:20:43.349Z,83.76
2018-06-08T17:23:14.573Z,84.13
2018-06-08T17:25:45.813Z,83.40
2018-06-08T17:28:17.260Z,82.75
2018-06-08T17:30:48.392Z,83.60
2018-06-08T17:33:19.738Z,83.19
2018-06-08T17:35:51.010Z,83.67
2018-06-08T18:51:33.925Z,92.19
2018-06-08T18:54:06.117Z,91.56
2018-06-08T18:56:38.144Z,92.18
2018-06-08T18:59:18.692Z,92.05
2018-06-08T19:01:51.014Z,91.39
2018-06-08T19:04:23.173Z,91.19
2018-06-08T19:06:55.216Z,91.20
2018-06-08T19:09:27.386Z,91.19
2018-06-08T19:13:04.636Z,92.83
2018-06-08T19:15:36.567Z,92.64
2018-06-08T19:18:08.662Z,93.07
2018-06-08T19:20:40.586Z,93.19
2018-06-08T19:23:12.572Z,94.34
2018-06-08T19:25:46.752Z,93.88
2018-06-08T19:28:18.938Z,93.95
2018-06-08T19:30:51.141Z,94.22
2018-06-08T19:33:23.068Z,94.23
2018-06-08T19:35:57.591Z,94.30
2018-06-08T19:38:29.700Z,93.75
2018-06-08T19:41:01.920Z,95.33
2018-06-08T19:43:34.598Z,96.33
2018-06-08T19:46:06.481Z,95.23
2018-06-08T19:48:39.330Z,96.13
2018-06-08T19:51:11.249Z,94.59
2018-06-08T19:53:43.396Z,94.61
2018-06-08T19:56:15.355Z,94.65
2018-06-08T19:58:47.245Z,94.36
2018-06-08T20:01:19.060Z,95.15
2018-06-08T20:03:52.080Z,95.53
2018-06-08T20:06:26.522Z,95.77
2018-06-08T20:12:26.724Z,93.83
2018-06-08T20:15:01.456Z,94.34
2018-06-08T20:17:33.023Z,95.10
2018-06-08T20:20:04.934Z,95.79
2018-06-08T20:22:37.331Z,95.09
2018-06-08T20:25:09.528Z,94.59
2018-06-08T20:27:41.409Z,95.48
2018-06-08T20:30:17.356Z,94.89
2018-06-08T20:32:49.373Z,95.01
2018-06-08T20:35:21.482Z,94.86
2018-06-08T20:37:53.184Z,96.06
2018-06-08T20:40:25.781Z,95.47
2018-06-08T20:42:58.254Z,96.11
2018-06-08T20:45:30.013Z,96.97
2018-06-08T20:48:02.055Z,96.11
2018-06-08T20:50:33.420Z,96.33
2018-06-08T20:53:11.936Z,96.92
2018-06-08T20:55:50.642Z,96.54
2018-06-08T20:58:23.389Z,97.05
2018-06-08T21:00:55.597Z,96.86
2018-06-08T21:03:27.420Z,97.90
2018-06-08T21:05:59.806Z,96.48
2018-06-08T21:08:31.654Z,96.86
2018-06-08T21:11:03.584Z,96.46
2018-06-08T21:13:35.478Z,96.71
2018-06-08T21:16:06.993Z,98.11
2018-06-08T21:18:38.285Z,98.93
2018-06-08T21:21:09.610Z,98.50
2018-06-08T21:23:41.304Z,96.48
2018-06-08T21:26:13.160Z,95.75
2018-06-08T21:28:44.912Z,96.25
2018-06-08T21:31:17.933Z,96.41
2018-06-08T21:33:49.862Z,96.29
2018-06-08T21:36:30.790Z,97.09
2018-06-08T21:39:02.506Z,96.88
2018-06-08T21:41:34.778Z,96.48
2018-06-08T21:44:06.758Z,95.87
2018-06-08T21:46:48.384Z,96.33
2018-06-08T21:49:22.987Z,97.66
2018-06-08T21:51:57.093Z,97.22
2018-06-08T21:54:30.356Z,98.08
2018-06-08T21:57:02.537Z,98.04
2018-06-08T21:59:34.540Z,98.37
2018-06-08T22:02:07.577Z,97.35
2018-06-08T22:04:39.456Z,97.01
2018-06-08T22:07:11.833Z,97.70
2018-06-08T22:09:44.667Z,97.10
2018-06-08T22:12:16.619Z,97.34
2018-06-08T22:15:04.523Z,97.91
2018-06-08T22:17:36.406Z,97.62
2018-06-08T22:20:08.537Z,95.52
2018-06-08T22:22:40.593Z,96.01
2018-06-08T22:25:14.728Z,96.25
2018-06-08T22:27:46.160Z,96.57
2018-06-08T22:30:20.194Z,97.61
2018-06-08T22:32:54.202Z,98.18
2018-06-08T22:35:26.263Z,98.39
2018-06-08T22:37:58.512Z,98.90
2018-06-08T22:40:30.280Z,99.06
2018-06-08T22:43:01.646Z,99.19
2018-06-08T22:45:33.741Z,99.36
2018-06-08T22:48:05.587Z,98.60
2018-06-08T22:50:44.656Z,96.97
2018-06-08T22:53:46.895Z,96.99
2018-06-08T22:56:19.096Z,98.09
2018-06-08T22:59:35.512Z,98.24
2018-06-08T23:03:26.062Z,98.03
2018-06-08T23:05:58.720Z,97.78
2018-06-08T23:08:30.887Z,97.97
2018-06-08T23:11:02.725Z,98.58
2018-06-08T23:13:34.842Z,99.18
2018-06-08T23:16:06.788Z,98.85
2018-06-08T23:18:38.096Z,99.36
2018-06-08T23:21:10.054Z,98.17
2018-06-08T23:23:41.771Z,98.19
2018-06-08T23:26:14.031Z,99.29
2018-06-08T23:28:45.996Z,99.96
2018-06-08T23:31:18.028Z,99.72
2018-06-08T23:33:50.150Z,99.77
2018-06-08T23:36:22.149Z,100.00
2018-06-08T23:38:59.388Z,100.00
2018-06-08T23:41:31.720Z,100.00
2018-06-08T23:44:04.748Z,100.00
2018-06-08T23:46:38.914Z,100.00
2018-06-08T23:49:11.856Z,100.00
2018-06-08T23:51:43.788Z,100.00
2018-06-08T23:54:15.713Z,100.00
2018-06-08T23:56:47.699Z,100.00
2018-06-08T23:59:22.238Z,100.00
